createdAt,value
2019-03-22T00:00:49.509Z,9.50
2019-03-22T00:03:19.373Z,9.40
2019-03-22T00:05:49.208Z,9.40
2019-03-22T00:08:19.050Z,9.30
2019-03-22T00:10:48.914Z,9.30
2019-03-22T00:13:18.769Z,9.20
2019-03-22T00:15:48.637Z,9.20
2019-03-22T00:18:18.532Z,9.10
2019-03-22T00:20:48.764Z,9.10
2019-03-22T00:23:18.630Z,9.00
2019-03-22T00:25:48.492Z,8.90
2019-03-22T00:28:18.361Z,8.90
2019-03-22T00:30:48.172Z,8.80
2019-03-22T00:33:17.985Z,8.80
2019-03-22T00:35:47.809Z,8.60
2019-03-22T00:38:17.690Z,8.60
2019-03-22T00:40:47.528Z,8.50
2019-03-22T00:43:17.336Z,8.50
2019-03-22T00:45:47.163Z,8.60
2019-03-22T00:48:16.971Z,8.50
2019-03-22T00:50:46.901Z,8.40
2019-03-22T00:53:16.701Z,8.40
2019-03-22T00:55:46.544Z,8.30
2019-03-22T00:58:16.452Z,8.40
2019-03-22T01:00:46.355Z,8.40
2019-03-22T01:03:16.169Z,8.30
2019-03-22T01:05:46.002Z,8.20
2019-03-22T01:08:15.801Z,8.10
2019-03-22T01:10:45.628Z,8.20
2019-03-22T01:13:15.420Z,8.20
2019-03-22T01:15:45.253Z,8.20
2019-03-22T01:18:15.054Z,8.30
2019-03-22T01:20:44.912Z,8.30
2019-03-22T01:23:14.797Z,8.30
2019-03-22T01:25:44.634Z,8.30
2019-03-22T01:28:14.430Z,8.20
2019-03-22T01:30:44.247Z,8.20
2019-03-22T01:33:14.050Z,8.10
2019-03-22T01:35:43.880Z,8.10
2019-03-22T01:38:13.691Z,8.00
2019-03-22T01:40:43.584Z,8.00
2019-03-22T01:43:13.401Z,8.00
2019-03-22T01:45:43.232Z,7.90
2019-03-22T01:48:13.172Z,7.80
2019-03-22T01:50:42.995Z,7.80
2019-03-22T01:53:12.831Z,7.70
2019-03-22T01:55:42.675Z,7.80
2019-03-22T01:58:12.559Z,7.80
2019-03-22T02:00:42.389Z,7.70
2019-03-22T02:03:12.191Z,7.70
2019-03-22T02:05:42.025Z,7.70
2019-03-22T02:08:11.842Z,7.70
2019-03-22T02:10:41.676Z,7.80
2019-03-22T02:13:11.513Z,7.80
2019-03-22T02:15:41.472Z,7.80
2019-03-22T02:18:11.282Z,7.80
2019-03-22T02:20:41.191Z,7.80
2019-03-22T02:23:11.032Z,7.80
2019-03-22T02:25:40.857Z,7.80
2019-03-22T02:28:10.671Z,7.70
2019-03-22T02:30:40.538Z,7.70
2019-03-22T02:33:10.397Z,7.70
2019-03-22T02:35:40.217Z,7.70
2019-03-22T02:38:10.111Z,7.70
2019-03-22T02:40:40.148Z,7.70
2019-03-22T02:43:10.069Z,7.70
2019-03-22T02:45:39.896Z,7.70
2019-03-22T02:48:09.715Z,7.70
2019-03-22T02:50:39.519Z,7.70
2019-03-22T02:53:09.358Z,7.70
2019-03-22T02:55:39.171Z,7.60
2019-03-22T02:58:20.365Z,7.60
2019-03-22T03:00:40.602Z,7.60
2019-03-22T03:03:10.530Z,7.60
2019-03-22T03:05:40.364Z,7.50
2019-03-22T03:08:10.385Z,7.50
2019-03-22T03:10:40.222Z,7.40
2019-03-22T03:13:10.063Z,7.40
2019-03-22T03:15:39.857Z,7.30
2019-03-22T03:18:09.705Z,7.30
2019-03-22T03:20:39.587Z,7.20
2019-03-22T03:23:09.514Z,7.20
2019-03-22T03:25:39.333Z,7.10
2019-03-22T03:28:09.160Z,7.10
2019-03-22T03:30:39.042Z,7.00
2019-03-22T03:33:09.089Z,7.00
2019-03-22T03:35:39.017Z,7.00
2019-03-22T03:38:08.923Z,7.10
2019-03-22T03:40:38.832Z,7.10
2019-03-22T03:43:08.650Z,7.10
2019-03-22T03:45:38.570Z,7.00
2019-03-22T03:48:09.138Z,7.10
2019-03-22T03:50:39.619Z,7.10
2019-03-22T03:53:09.533Z,7.00
2019-03-22T03:55:39.365Z,7.00
2019-03-22T03:58:09.345Z,6.90
2019-03-22T04:00:39.142Z,6.80
2019-03-22T04:03:08.967Z,6.80
2019-03-22T04:05:38.782Z,6.70
2019-03-22T04:08:08.702Z,6.70
2019-03-22T04:10:38.581Z,6.60
2019-03-22T04:13:08.518Z,6.60
2019-03-22T04:15:38.336Z,6.50
2019-03-22T04:18:08.221Z,6.60
2019-03-22T04:20:38.090Z,6.70
2019-03-22T04:23:07.991Z,6.80
2019-03-22T04:25:37.787Z,6.80
2019-03-22T04:28:07.624Z,6.80
2019-03-22T04:30:37.444Z,6.80
2019-03-22T04:33:07.394Z,6.90
2019-03-22T04:35:37.240Z,6.90
2019-03-22T04:38:07.065Z,6.80
2019-03-22T04:40:36.883Z,6.80
2019-03-22T04:43:06.696Z,6.80
2019-03-22T04:45:37.525Z,6.90
2019-03-22T04:48:16.214Z,6.90
2019-03-22T04:50:48.288Z,6.90
2019-03-22T04:53:21.994Z,6.80
2019-03-22T04:55:56.393Z,6.70
2019-03-22T04:58:28.126Z,6.70
2019-03-22T05:00:59.673Z,6.70
2019-03-22T05:03:33.023Z,6.70
2019-03-22T05:06:05.795Z,6.80
2019-03-22T05:08:38.969Z,6.80
2019-03-22T05:11:11.261Z,6.80
2019-03-22T05:13:42.877Z,6.70
2019-03-22T05:16:15.534Z,6.70
2019-03-22T05:18:49.274Z,6.60
2019-03-22T05:21:21.873Z,6.60
2019-03-22T05:23:54.635Z,6.60
2019-03-22T05:26:26.162Z,6.60
2019-03-22T05:28:56.300Z,6.50
2019-03-22T05:31:59.660Z,6.50
2019-03-22T05:34:29.577Z,6.40
2019-03-22T05:36:59.503Z,6.40
2019-03-22T05:39:29.334Z,6.40
2019-03-22T05:41:59.147Z,6.40
2019-03-22T05:44:28.969Z,6.40
2019-03-22T05:46:58.883Z,6.40
2019-03-22T05:49:28.778Z,6.40
2019-03-22T05:51:58.704Z,6.40
2019-03-22T05:54:29.423Z,6.50
2019-03-22T05:56:59.356Z,6.50
2019-03-22T05:59:29.335Z,6.50
2019-03-22T06:02:00.488Z,6.50
2019-03-22T06:04:30.379Z,6.50
2019-03-22T06:07:00.212Z,6.60
2019-03-22T06:09:30.037Z,6.70
2019-03-22T06:11:59.857Z,6.70
2019-03-22T06:14:29.697Z,6.90
2019-03-22T06:16:59.525Z,6.90
2019-03-22T06:19:29.400Z,6.90
2019-03-22T06:22:01.132Z,7.10
2019-03-22T06:24:30.982Z,7.30
2019-03-22T06:27:00.806Z,7.60
2019-03-22T06:29:30.629Z,7.80
2019-03-22T06:32:00.430Z,8.10
2019-03-22T06:34:30.277Z,8.40
2019-03-22T06:37:00.130Z,8.60
2019-03-22T06:39:29.957Z,8.60
2019-03-22T06:41:59.783Z,9.00
2019-03-22T06:44:29.604Z,9.30
2019-03-22T06:46:59.428Z,10.00
2019-03-22T06:49:29.262Z,10.30
2019-03-22T06:51:59.056Z,10.70
2019-03-22T06:54:31.847Z,11.00
2019-03-22T06:57:00.503Z,11.70
2019-03-22T06:59:30.338Z,11.70
2019-03-22T07:02:00.605Z,11.80
2019-03-22T07:04:30.485Z,11.20
2019-03-22T07:07:00.382Z,11.30
2019-03-22T07:09:30.230Z,11.80
2019-03-22T07:12:00.067Z,12.10
2019-03-22T07:14:29.993Z,12.20
2019-03-22T07:16:59.878Z,12.00
2019-03-22T07:19:29.809Z,12.40
2019-03-22T07:21:59.895Z,12.60
2019-03-22T07:24:29.901Z,12.90
2019-03-22T07:26:59.921Z,13.00
2019-03-22T07:29:29.769Z,13.40
2019-03-22T07:31:59.618Z,13.70
2019-03-22T07:34:29.455Z,13.80
2019-03-22T07:36:59.280Z,13.30
2019-03-22T07:39:29.143Z,13.60
2019-03-22T07:41:58.973Z,13.30
2019-03-22T07:44:28.835Z,13.50
2019-03-22T07:46:58.653Z,13.50
2019-03-22T07:49:28.477Z,13.70
2019-03-22T07:51:58.325Z,13.60
2019-03-22T07:54:28.235Z,13.60
2019-03-22T07:56:58.143Z,13.60
2019-03-22T07:59:28.010Z,13.90
2019-03-22T08:01:57.835Z,14.40
2019-03-22T08:04:28.149Z,15.10
2019-03-22T08:06:58.091Z,15.00
2019-03-22T08:09:28.005Z,15.90
2019-03-22T08:11:57.889Z,17.00
2019-03-22T08:14:27.736Z,16.90
2019-03-22T08:16:57.716Z,17.40
2019-03-22T08:19:27.592Z,17.20
2019-03-22T08:21:57.405Z,17.70
2019-03-22T08:24:27.236Z,17.70
2019-03-22T08:26:57.101Z,17.90
2019-03-22T08:29:26.953Z,18.10
2019-03-22T08:31:56.967Z,18.30
2019-03-22T08:34:26.910Z,18.00
2019-03-22T08:36:56.732Z,18.50
2019-03-22T08:39:26.609Z,19.10
2019-03-22T08:41:56.446Z,18.60
2019-03-22T08:44:26.281Z,18.40
2019-03-22T08:46:56.140Z,18.80
2019-03-22T08:49:26.023Z,18.50
2019-03-22T08:51:55.992Z,19.60
2019-03-22T08:54:25.849Z,19.10
2019-03-22T08:56:55.828Z,19.10
2019-03-22T08:59:25.756Z,19.80
2019-03-22T09:01:56.065Z,20.30
2019-03-22T09:04:25.904Z,20.10
2019-03-22T09:06:56.111Z,20.40
2019-03-22T09:09:27.477Z,21.10
2019-03-22T09:11:57.532Z,21.50
2019-03-22T09:14:27.521Z,21.00
2019-03-22T09:16:57.509Z,21.30
2019-03-22T09:19:27.442Z,21.80
2019-03-22T09:21:59.537Z,22.20
2019-03-22T09:24:38.601Z,21.20
2019-03-22T09:27:00.429Z,21.10
2019-03-22T09:29:30.312Z,21.90
2019-03-22T09:32:00.223Z,20.90
2019-03-22T09:34:33.904Z,21.60
2019-03-22T09:37:01.695Z,22.00
2019-03-22T09:39:31.583Z,21.50
2019-03-22T09:42:01.398Z,21.30
2019-03-22T09:44:42.884Z,21.40
2019-03-22T09:47:02.942Z,20.60
2019-03-22T09:49:32.878Z,20.70
2019-03-22T09:52:02.777Z,20.30
2019-03-22T09:54:32.711Z,19.80
2019-03-22T09:57:02.581Z,19.80
2019-03-22T09:59:32.428Z,19.70
2019-03-22T10:02:02.257Z,20.10
2019-03-22T10:04:32.189Z,19.80
2019-03-22T10:07:02.081Z,20.20
2019-03-22T10:09:31.995Z,19.80
2019-03-22T10:12:01.903Z,19.90
2019-03-22T10:14:31.848Z,20.90
2019-03-22T10:17:01.811Z,22.10
2019-03-22T10:19:31.697Z,22.90
2019-03-22T10:22:01.563Z,23.40
2019-03-22T10:24:31.498Z,24.00
2019-03-22T10:27:01.371Z,23.80
2019-03-22T10:29:31.294Z,22.90
2019-03-22T10:32:01.198Z,22.80
2019-03-22T10:34:31.197Z,23.20
2019-03-22T10:37:01.038Z,23.40
2019-03-22T10:39:31.066Z,24.60
2019-03-22T10:42:01.148Z,25.10
2019-03-22T10:44:31.078Z,24.90
2019-03-22T10:47:00.958Z,24.20
2019-03-22T10:49:30.806Z,24.50
2019-03-22T10:52:00.667Z,23.80
2019-03-22T10:54:30.548Z,23.60
2019-03-22T10:57:00.558Z,23.30
2019-03-22T10:59:30.395Z,23.80
2019-03-22T11:02:03.604Z,23.50
2019-03-22T11:04:31.758Z,23.20
2019-03-22T11:07:01.589Z,23.30
2019-03-22T11:09:31.441Z,23.10
2019-03-22T11:12:01.251Z,23.50
2019-03-22T11:14:32.165Z,23.40
2019-03-22T11:17:02.076Z,23.40
2019-03-22T11:19:31.921Z,24.00
2019-03-22T11:22:01.755Z,24.20
2019-03-22T11:24:31.594Z,23.30
2019-03-22T11:34:11.929Z,22.20
2019-03-22T11:36:41.775Z,22.50
2019-03-22T11:39:15.749Z,23.60
2019-03-22T11:41:44.279Z,23.00
2019-03-22T11:44:14.204Z,22.20
2019-03-22T11:46:44.041Z,22.00
2019-03-22T11:49:13.863Z,22.00
2019-03-22T11:51:43.675Z,22.20
2019-03-22T11:54:13.509Z,22.70
2019-03-22T11:56:43.334Z,22.80
2019-03-22T11:59:13.134Z,22.30
2019-03-22T12:01:42.988Z,22.90
2019-03-22T12:04:12.801Z,22.90
2019-03-22T12:06:42.640Z,23.30
2019-03-22T12:09:12.478Z,22.70
2019-03-22T12:11:42.317Z,22.00
2019-03-22T12:14:12.213Z,22.80
2019-03-22T12:16:42.040Z,22.90
2019-03-22T12:19:11.850Z,23.50
2019-03-22T12:21:41.689Z,23.20
2019-03-22T12:24:11.501Z,23.40
2019-03-22T12:26:41.348Z,23.40
2019-03-22T12:29:11.199Z,23.30
2019-03-22T12:31:41.020Z,23.50
2019-03-22T12:34:10.832Z,24.10
2019-03-22T12:36:40.722Z,24.10
2019-03-22T12:39:10.912Z,24.10
2019-03-22T12:41:40.757Z,23.90
2019-03-22T12:44:10.599Z,23.50
2019-03-22T12:46:40.514Z,23.50
2019-03-22T12:49:10.375Z,23.20
2019-03-22T12:51:40.202Z,23.40
2019-03-22T12:54:10.156Z,23.70
2019-03-22T12:56:39.994Z,24.10
2019-03-22T12:59:09.789Z,23.90
2019-03-22T13:01:39.639Z,23.60
2019-03-22T13:04:09.507Z,23.10
2019-03-22T13:06:39.340Z,23.10
2019-03-22T13:09:09.896Z,23.70
2019-03-22T13:11:39.730Z,23.60
2019-03-22T13:14:09.537Z,23.70
2019-03-22T13:16:39.361Z,24.10
2019-03-22T13:19:09.197Z,23.60
2019-03-22T13:21:39.142Z,23.50
2019-03-22T13:24:09.001Z,23.70
2019-03-22T13:26:38.838Z,23.40
2019-03-22T13:29:08.657Z,23.30
2019-03-22T13:31:38.486Z,23.50
2019-03-22T13:34:08.302Z,22.90
2019-03-22T13:36:38.129Z,23.10
2019-03-22T13:39:09.051Z,23.20
2019-03-22T13:41:38.977Z,23.10
2019-03-22T13:44:08.789Z,23.10
2019-03-22T13:46:40.495Z,23.40
2019-03-22T13:49:10.152Z,23.40
2019-03-22T13:51:39.996Z,23.20
2019-03-22T13:54:09.806Z,23.50
2019-03-22T13:56:39.717Z,22.80
2019-03-22T13:59:09.592Z,22.40
2019-03-22T14:01:39.417Z,22.60
2019-03-22T14:04:09.237Z,22.80
2019-03-22T14:06:39.143Z,22.60
2019-03-22T14:09:09.518Z,22.40
2019-03-22T14:11:39.324Z,22.40
2019-03-22T14:14:09.141Z,22.30
2019-03-22T14:16:39.004Z,22.40
2019-03-22T14:19:08.843Z,22.90
2019-03-22T14:21:38.672Z,22.30
2019-03-22T14:24:08.489Z,22.00
2019-03-22T14:26:38.462Z,21.90
2019-03-22T14:29:08.261Z,21.90
2019-03-22T14:31:38.171Z,21.90
2019-03-22T14:34:07.975Z,21.50
2019-03-22T14:36:37.824Z,21.50
2019-03-22T14:39:09.120Z,21.40
2019-03-22T14:41:38.964Z,21.20
2019-03-22T14:44:08.765Z,20.90
2019-03-22T14:46:38.606Z,20.40
2019-03-22T14:49:08.455Z,20.20
2019-03-22T14:51:38.299Z,20.20
2019-03-22T14:54:08.108Z,20.10
2019-03-22T14:56:37.944Z,20.10
2019-03-22T14:59:07.818Z,20.10
2019-03-22T15:01:37.670Z,20.10
2019-03-22T15:04:07.496Z,20.10
2019-03-22T15:06:37.312Z,20.10
2019-03-22T15:09:08.319Z,20.00
2019-03-22T15:11:38.167Z,19.90
2019-03-22T15:14:15.982Z,19.80
2019-03-22T15:17:03.881Z,19.80
2019-03-22T15:19:58.713Z,19.80
2019-03-22T15:22:55.274Z,19.80
2019-03-22T15:25:42.865Z,19.90
2019-03-22T15:28:30.517Z,19.90
2019-03-22T15:31:22.451Z,19.80
2019-03-22T15:34:15.103Z,19.80
2019-03-22T15:37:03.938Z,19.80
2019-03-22T15:39:58.811Z,19.80
2019-03-22T15:42:28.620Z,19.80
2019-03-22T15:44:58.506Z,19.80
2019-03-22T15:47:28.373Z,19.80
2019-03-22T15:49:58.216Z,19.80
2019-03-22T15:52:28.104Z,19.80
2019-03-22T15:54:57.923Z,19.80
2019-03-22T15:57:27.767Z,19.80
2019-03-22T15:59:57.606Z,19.80
2019-03-22T16:02:27.414Z,19.70
2019-03-22T16:04:57.236Z,19.70
2019-03-22T16:07:27.097Z,19.70
2019-03-22T16:09:57.102Z,19.70
2019-03-22T16:12:26.933Z,19.80
2019-03-22T16:14:56.761Z,19.70
2019-03-22T16:17:26.604Z,19.70
2019-03-22T16:19:56.462Z,19.60
2019-03-22T16:22:26.336Z,19.60
2019-03-22T16:24:56.219Z,19.60
2019-03-22T16:27:26.070Z,19.60
2019-03-22T16:29:55.909Z,19.60
2019-03-22T16:32:25.711Z,19.60
2019-03-22T16:34:55.561Z,19.50
2019-03-22T16:37:25.377Z,19.50
2019-03-22T16:39:55.191Z,19.50
2019-03-22T16:42:25.037Z,19.50
2019-03-22T16:44:54.853Z,19.50
2019-03-22T16:47:24.769Z,19.50
2019-03-22T16:49:54.588Z,19.40
2019-03-22T16:52:24.428Z,19.30
2019-03-22T16:54:54.266Z,19.30
2019-03-22T16:57:24.058Z,19.30
2019-03-22T16:59:53.880Z,19.30
2019-03-22T17:02:23.765Z,19.30
2019-03-22T17:04:53.656Z,19.20
2019-03-22T17:07:23.471Z,19.10
2019-03-22T17:09:53.317Z,19.10
2019-03-22T17:12:23.179Z,19.00
2019-03-22T17:14:53.005Z,19.00
2019-03-22T17:17:22.836Z,18.90
2019-03-22T17:19:52.686Z,18.90
2019-03-22T17:22:22.529Z,18.80
2019-03-22T17:24:52.432Z,18.70
2019-03-22T17:27:22.270Z,18.70
2019-03-22T17:29:52.109Z,18.70
2019-03-22T17:32:22.027Z,18.60
2019-03-22T17:34:51.942Z,18.50
2019-03-22T17:37:21.758Z,18.40
2019-03-22T17:39:51.656Z,18.50
2019-03-22T17:42:21.453Z,18.40
2019-03-22T17:44:51.294Z,18.30
2019-03-22T17:47:21.156Z,18.20
2019-03-22T17:49:50.990Z,18.10
2019-03-22T17:52:20.875Z,18.10
2019-03-22T17:54:50.679Z,18.00
2019-03-22T17:57:20.510Z,17.90
2019-03-22T17:59:50.312Z,17.90
2019-03-22T18:02:20.181Z,17.90
2019-03-22T18:04:50.037Z,17.80
2019-03-22T18:07:19.861Z,17.70
2019-03-22T18:09:49.677Z,17.50
2019-03-22T18:12:19.490Z,17.30
2019-03-22T18:14:49.314Z,17.20
2019-03-22T18:17:19.156Z,17.10
2019-03-22T18:19:48.986Z,17.10
2019-03-22T18:22:18.854Z,17.00
2019-03-22T18:24:48.678Z,17.00
2019-03-22T18:27:18.599Z,16.90
2019-03-22T18:29:48.713Z,16.80
2019-03-22T18:32:18.538Z,16.80
2019-03-22T18:34:48.358Z,16.80
2019-03-22T18:37:18.180Z,16.80
2019-03-22T18:39:47.989Z,16.60
2019-03-22T18:42:17.797Z,16.60
2019-03-22T18:44:47.672Z,16.60
2019-03-22T18:47:17.525Z,16.60
2019-03-22T18:49:47.339Z,16.50
2019-03-22T18:52:17.162Z,16.40
2019-03-22T18:54:46.976Z,16.30
2019-03-22T18:57:16.801Z,16.20
2019-03-22T18:59:46.614Z,16.30
2019-03-22T19:02:16.423Z,16.30
2019-03-22T19:04:46.223Z,16.30
2019-03-22T19:07:16.037Z,16.20
2019-03-22T19:09:45.875Z,16.20
2019-03-22T19:12:15.719Z,16.10
2019-03-22T19:14:45.563Z,16.00
2019-03-22T19:17:15.419Z,16.00
2019-03-22T19:19:45.371Z,15.90
2019-03-22T19:22:15.533Z,15.90
2019-03-22T19:24:45.536Z,15.80
2019-03-22T19:27:15.728Z,15.80
2019-03-22T19:29:45.741Z,15.80
2019-03-22T19:32:16.564Z,15.70
2019-03-22T19:34:53.993Z,15.50
2019-03-22T19:37:18.479Z,15.40
2019-03-22T19:39:48.393Z,15.30
2019-03-22T19:42:18.519Z,15.20
2019-03-22T19:44:48.637Z,15.10
2019-03-22T19:47:18.614Z,15.10
2019-03-22T19:49:48.467Z,15.00
2019-03-22T19:52:19.825Z,15.00
2019-03-22T19:54:49.908Z,15.00
2019-03-22T19:57:19.848Z,14.90
2019-03-22T19:59:49.789Z,14.80
2019-03-22T20:02:20.111Z,14.70
2019-03-22T20:04:49.961Z,14.50
2019-03-22T20:07:26.808Z,14.40
2019-03-22T20:09:51.385Z,14.40
2019-03-22T20:12:21.302Z,14.30
2019-03-22T20:14:51.363Z,14.30
2019-03-22T20:17:21.379Z,14.20
2019-03-22T20:19:51.410Z,14.20
2019-03-22T20:22:21.220Z,14.20
2019-03-22T20:24:51.244Z,14.20
2019-03-22T20:27:21.167Z,14.20
2019-03-22T20:29:51.244Z,14.20
2019-03-22T20:32:21.141Z,14.10
2019-03-22T20:34:51.053Z,14.00
2019-03-22T20:37:21.241Z,13.90
2019-03-22T20:39:51.188Z,13.80
2019-03-22T20:42:21.225Z,13.80
2019-03-22T20:44:51.252Z,13.80
2019-03-22T20:47:21.565Z,13.70
2019-03-22T20:49:51.392Z,13.70
2019-03-22T20:52:21.492Z,13.70
2019-03-22T20:54:51.393Z,13.60
2019-03-22T20:57:21.248Z,13.50
2019-03-22T20:59:51.373Z,13.50
2019-03-22T21:02:21.294Z,13.50
2019-03-22T21:04:51.270Z,13.40
2019-03-22T21:07:21.434Z,13.30
2019-03-22T21:09:51.481Z,13.30
2019-03-22T21:12:21.398Z,13.20
2019-03-22T21:14:51.325Z,13.30
2019-03-22T21:17:21.203Z,13.30
2019-03-22T21:19:51.030Z,13.30
2019-03-22T21:22:20.860Z,13.30
2019-03-22T21:24:50.716Z,13.30
2019-03-22T21:27:20.527Z,13.20
2019-03-22T21:29:50.431Z,13.20
2019-03-22T21:32:20.265Z,13.20
2019-03-22T21:34:50.124Z,13.10
2019-03-22T21:37:19.946Z,13.00
2019-03-22T21:39:49.787Z,12.90
2019-03-22T21:42:19.744Z,13.00
2019-03-22T21:44:49.558Z,13.00
2019-03-22T21:47:19.465Z,12.90
2019-03-22T21:49:49.324Z,12.90
2019-03-22T21:52:19.197Z,13.10
2019-03-22T21:54:49.007Z,13.30
2019-03-22T21:57:18.874Z,13.10
2019-03-22T21:59:48.800Z,13.00
2019-03-22T22:02:18.773Z,13.10
2019-03-22T22:04:48.601Z,13.20
2019-03-22T22:07:18.467Z,13.10
2019-03-22T22:09:48.333Z,13.00
2019-03-22T22:12:18.283Z,12.80
2019-03-22T22:14:48.166Z,12.80
2019-03-22T22:17:18.072Z,12.60
2019-03-22T22:19:47.897Z,12.60
2019-03-22T22:22:18.124Z,12.50
2019-03-22T22:24:48.039Z,12.40
2019-03-22T22:27:17.901Z,12.40
2019-03-22T22:29:47.801Z,12.30
2019-03-22T22:32:17.707Z,12.20
2019-03-22T22:34:47.616Z,12.20
2019-03-22T22:37:17.494Z,12.30
2019-03-22T22:39:47.377Z,12.20
2019-03-22T22:42:17.336Z,12.40
2019-03-22T22:44:47.308Z,12.40
2019-03-22T22:47:17.184Z,12.40
2019-03-22T22:49:48.334Z,12.20
2019-03-22T22:52:18.470Z,12.10
2019-03-22T22:54:48.426Z,12.10
2019-03-22T22:57:18.272Z,12.00
2019-03-22T22:59:48.193Z,11.90
2019-03-22T23:02:18.112Z,11.70
2019-03-22T23:04:48.054Z,11.70
2019-03-22T23:07:17.909Z,11.70
2019-03-22T23:09:47.802Z,11.50
2019-03-22T23:12:17.814Z,11.40
2019-03-22T23:14:47.740Z,11.20
2019-03-22T23:17:17.702Z,11.00
2019-03-22T23:19:47.565Z,10.90
2019-03-22T23:22:17.426Z,10.80
2019-03-22T23:24:48.998Z,10.90
2019-03-22T23:27:18.946Z,11.00
2019-03-22T23:29:48.806Z,11.00
2019-03-22T23:32:18.648Z,10.90
2019-03-22T23:34:58.472Z,10.90
2019-03-22T23:37:20.113Z,10.80
2019-03-22T23:39:49.993Z,10.80
2019-03-22T23:42:19.830Z,10.80
2019-03-22T23:44:49.736Z,10.70
2019-03-22T23:47:19.625Z,10.70
2019-03-22T23:49:49.485Z,10.60
2019-03-22T23:52:19.301Z,10.50
2019-03-22T23:54:49.112Z,10.30
2019-03-22T23:57:19.055Z,10.10
2019-03-22T23:59:48.973Z,10.00
